createdAt,value
2023-05-10T00:01:46.293Z,0.94
2023-05-10T00:04:13.177Z,0.80
2023-05-10T00:06:40.052Z,0.86
2023-05-10T00:09:06.846Z,0.72
2023-05-10T00:11:33.698Z,0.73
2023-05-10T00:14:00.732Z,0.74
2023-05-10T00:16:29.034Z,0.67
2023-05-10T00:18:55.817Z,0.65
2023-05-10T00:21:22.681Z,0.82
2023-05-10T00:23:49.509Z,0.77
2023-05-10T00:26:16.304Z,1.11
2023-05-10T00:28:43.172Z,0.96
2023-05-10T00:31:10.058Z,0.86
2023-05-10T00:33:41.571Z,0.91
2023-05-10T00:36:08.702Z,0.85
2023-05-10T00:38:35.816Z,0.90
2023-05-10T00:41:02.804Z,0.74
2023-05-10T00:43:29.670Z,0.81
2023-05-10T00:45:56.648Z,1.07
2023-05-10T00:48:23.680Z,0.90
2023-05-10T00:50:52.330Z,1.03
2023-05-10T00:53:20.136Z,1.23
2023-05-10T00:55:47.034Z,1.17
2023-05-10T00:58:13.761Z,1.15
2023-05-10T01:00:42.923Z,1.00
2023-05-10T01:03:10.501Z,0.90
2023-05-10T01:05:37.372Z,1.02
2023-05-10T01:08:06.041Z,0.92
2023-05-10T01:10:33.097Z,0.87
2023-05-10T01:13:00.989Z,0.96
2023-05-10T01:15:28.395Z,1.16
2023-05-10T01:17:55.386Z,1.14
2023-05-10T01:20:22.335Z,0.86
2023-05-10T01:23:25.656Z,0.98
2023-05-10T01:26:19.602Z,1.13
2023-05-10T01:29:07.394Z,1.01
2023-05-10T01:32:12.105Z,0.87
2023-05-10T01:34:48.787Z,0.90
2023-05-10T01:37:22.753Z,0.81
2023-05-10T01:39:59.368Z,0.94
2023-05-10T01:42:29.862Z,1.00
2023-05-10T01:45:03.461Z,0.92
2023-05-10T01:47:38.347Z,1.20
2023-05-10T01:50:11.084Z,1.01
2023-05-10T01:52:41.948Z,1.03
2023-05-10T01:55:12.169Z,0.87
2023-05-10T01:57:41.536Z,0.92
2023-05-10T02:00:09.893Z,0.83
2023-05-10T02:02:40.645Z,0.99
2023-05-10T02:05:08.828Z,0.90
2023-05-10T02:07:37.281Z,0.99
2023-05-10T02:10:07.149Z,0.86
2023-05-10T02:12:37.053Z,0.85
2023-05-10T02:15:07.320Z,0.96
2023-05-10T02:17:35.346Z,0.84
2023-05-10T02:20:05.782Z,1.03
2023-05-10T02:22:33.685Z,0.98
2023-05-10T02:25:01.941Z,1.04
2023-05-10T02:27:30.413Z,1.07
2023-05-10T02:29:58.794Z,0.85
2023-05-10T02:32:27.276Z,0.73
2023-05-10T02:34:55.649Z,0.75
2023-05-10T02:37:24.952Z,0.72
2023-05-10T02:39:54.757Z,0.77
2023-05-10T02:42:27.203Z,0.78
2023-05-10T02:45:00.327Z,0.70
2023-05-10T02:47:27.689Z,0.99
2023-05-10T02:49:54.784Z,0.96
2023-05-10T02:52:28.079Z,1.05
2023-05-10T02:54:59.652Z,0.97
2023-05-10T02:57:29.605Z,0.78
2023-05-10T02:59:56.479Z,0.81
2023-05-10T03:02:23.334Z,0.86
2023-05-10T03:04:50.354Z,0.77
2023-05-10T03:07:18.061Z,0.76
2023-05-10T03:09:46.318Z,0.81
2023-05-10T03:12:28.426Z,0.86
2023-05-10T03:15:04.687Z,0.85
2023-05-10T03:17:48.551Z,1.37
2023-05-10T03:20:23.446Z,1.19
2023-05-10T03:22:56.888Z,1.19
2023-05-10T03:25:28.694Z,1.02
2023-05-10T03:27:57.635Z,1.00
2023-05-10T03:30:28.847Z,1.21
2023-05-10T03:32:55.883Z,1.01
2023-05-10T03:35:23.082Z,0.95
2023-05-10T03:37:50.304Z,1.09
2023-05-10T03:40:17.564Z,1.09
2023-05-10T03:42:52.970Z,1.09
2023-05-10T03:45:19.889Z,1.05
2023-05-10T03:47:48.316Z,1.48
2023-05-10T03:50:18.190Z,1.29
2023-05-10T03:52:45.599Z,1.18
2023-05-10T03:55:12.440Z,1.36
2023-05-10T03:57:39.457Z,1.15
2023-05-10T04:00:09.208Z,1.21
2023-05-10T04:02:36.407Z,1.28
2023-05-10T04:05:09.999Z,1.19
2023-05-10T04:07:37.264Z,1.19
2023-05-10T04:10:11.765Z,1.09
2023-05-10T04:12:42.446Z,1.15
2023-05-10T04:15:12.320Z,1.23
2023-05-10T04:17:39.536Z,1.21
2023-05-10T04:20:17.818Z,1.22
2023-05-10T04:22:45.389Z,1.06
2023-05-10T04:25:15.045Z,0.84
2023-05-10T04:27:49.773Z,0.88
2023-05-10T04:30:22.076Z,0.93
2023-05-10T04:32:51.162Z,0.88
2023-05-10T04:35:18.447Z,0.85
2023-05-10T04:37:47.079Z,1.16
2023-05-10T04:40:17.400Z,1.05
2023-05-10T04:42:47.337Z,1.10
2023-05-10T04:45:14.923Z,1.02
2023-05-10T04:47:43.190Z,1.01
2023-05-10T04:50:10.376Z,0.90
2023-05-10T04:52:40.381Z,0.85
2023-05-10T04:55:10.664Z,0.86
2023-05-10T04:57:37.636Z,1.08
2023-05-10T05:00:05.403Z,1.07
2023-05-10T05:02:36.246Z,0.98
2023-05-10T05:05:06.219Z,1.03
2023-05-10T05:07:33.483Z,0.95
2023-05-10T05:10:00.836Z,1.38
2023-05-10T05:12:30.688Z,1.21
2023-05-10T05:14:57.765Z,1.57
2023-05-10T05:17:24.858Z,1.39
2023-05-10T05:19:51.789Z,1.36
2023-05-10T05:22:20.906Z,1.08
2023-05-10T05:24:47.756Z,1.22
2023-05-10T05:27:14.667Z,1.03
2023-05-10T05:29:41.888Z,1.05
2023-05-10T05:32:09.356Z,1.30
2023-05-10T05:34:39.730Z,1.20
2023-05-10T05:37:08.549Z,1.28
2023-05-10T05:39:37.561Z,1.10
2023-05-10T05:42:10.957Z,1.02
2023-05-10T05:44:38.067Z,1.13
2023-05-10T05:47:05.348Z,1.12
2023-05-10T05:49:36.369Z,1.58
2023-05-10T05:52:13.287Z,1.39
2023-05-10T05:54:47.872Z,1.24
2023-05-10T05:57:19.783Z,1.01
2023-05-10T05:59:48.256Z,1.16
2023-05-10T06:02:32.561Z,1.16
2023-05-10T06:05:02.188Z,1.13
2023-05-10T06:07:36.118Z,1.10
2023-05-10T06:10:09.233Z,1.55
2023-05-10T06:12:38.793Z,1.16
2023-05-10T06:15:09.715Z,1.14
2023-05-10T06:17:37.240Z,1.07
2023-05-10T06:20:09.557Z,1.17
2023-05-10T06:22:37.110Z,1.16
2023-05-10T06:25:10.221Z,1.19
2023-05-10T06:27:37.099Z,1.09
2023-05-10T06:30:13.018Z,0.95
2023-05-10T06:32:40.539Z,0.97
2023-05-10T06:35:08.599Z,0.95
2023-05-10T06:37:35.505Z,0.86
2023-05-10T06:40:02.574Z,1.08
2023-05-10T06:42:41.865Z,0.98
2023-05-10T06:45:34.812Z,0.99
2023-05-10T06:48:09.087Z,1.00
2023-05-10T06:50:36.549Z,0.90
2023-05-10T06:53:08.485Z,1.01
2023-05-10T06:55:35.408Z,1.14
2023-05-10T06:58:03.635Z,1.11
2023-05-10T07:00:31.034Z,1.00
2023-05-10T07:03:00.808Z,0.81
2023-05-10T07:05:46.110Z,0.84
2023-05-10T07:08:34.304Z,0.93
2023-05-10T07:11:28.470Z,0.99
2023-05-10T07:14:10.065Z,0.97
2023-05-10T07:16:43.057Z,0.99
2023-05-10T07:19:30.487Z,0.84
2023-05-10T07:22:17.956Z,0.93
2023-05-10T07:24:51.295Z,0.92
2023-05-10T07:30:21.995Z,0.97
2023-05-10T07:32:52.065Z,0.96
2023-05-10T07:35:23.602Z,1.03
2023-05-10T07:37:55.402Z,1.07
2023-05-10T07:40:35.631Z,0.88
2023-05-10T07:43:17.811Z,0.80
2023-05-10T07:45:56.379Z,0.81
2023-05-10T07:48:43.951Z,0.95
2023-05-10T07:51:12.170Z,0.98
2023-05-10T07:53:39.691Z,0.80
2023-05-10T07:56:22.816Z,0.66
2023-05-10T07:58:53.120Z,0.83
2023-05-10T08:04:59.146Z,0.97
2023-05-10T08:07:29.141Z,0.94
2023-05-10T08:09:56.210Z,1.02
2023-05-10T08:12:23.230Z,1.12
2023-05-10T08:14:50.020Z,1.23
2023-05-10T08:17:18.244Z,1.02
2023-05-10T08:19:46.872Z,0.99
2023-05-10T08:22:17.451Z,0.87
2023-05-10T08:24:50.393Z,0.85
2023-05-10T08:27:26.613Z,0.90
2023-05-10T08:30:36.120Z,0.76
2023-05-10T08:33:03.026Z,0.99
2023-05-10T08:35:32.680Z,0.83
2023-05-10T08:38:17.065Z,0.93
2023-05-10T08:40:46.223Z,0.84
2023-05-10T08:43:24.692Z,0.73
2023-05-10T08:45:56.275Z,0.67
2023-05-10T08:48:33.868Z,0.64
2023-05-10T08:51:23.043Z,0.76
2023-05-10T08:54:29.277Z,0.91
2023-05-10T08:57:07.067Z,1.02
2023-05-10T08:59:34.294Z,0.79
2023-05-10T09:02:05.435Z,0.85
2023-05-10T09:04:35.893Z,0.78
2023-05-10T09:07:10.118Z,0.66
2023-05-10T09:09:43.133Z,1.04
2023-05-10T09:12:14.587Z,0.87
2023-05-10T09:17:54.967Z,0.84
2023-05-10T09:20:35.969Z,1.30
2023-05-10T09:23:06.011Z,1.43
2023-05-10T09:25:35.095Z,1.29
2023-05-10T09:28:13.057Z,1.07
2023-05-10T09:30:40.406Z,1.09
2023-05-10T09:33:08.198Z,1.04
2023-05-10T09:35:45.215Z,1.18
2023-05-10T09:38:23.107Z,1.12
2023-05-10T09:41:01.298Z,0.97
2023-05-10T09:43:40.124Z,0.91
2023-05-10T09:46:10.748Z,1.09
2023-05-10T09:48:52.348Z,1.27
2023-05-10T09:51:37.699Z,1.23
2023-05-10T09:54:13.852Z,1.20
2023-05-10T09:56:49.037Z,1.34
2023-05-10T09:59:20.182Z,1.75
2023-05-10T10:01:59.879Z,1.55
2023-05-10T10:04:29.750Z,1.55
2023-05-10T10:07:10.231Z,1.41
2023-05-10T10:09:43.680Z,1.27
2023-05-10T10:12:14.045Z,1.09
2023-05-10T10:14:44.142Z,1.13
2023-05-10T10:17:12.039Z,1.18
2023-05-10T10:19:39.196Z,1.06
2023-05-10T10:22:06.484Z,0.96
2023-05-10T10:24:33.296Z,1.44
2023-05-10T10:27:09.969Z,1.17
2023-05-10T10:29:45.422Z,1.11
2023-05-10T10:32:23.086Z,1.27
2023-05-10T10:34:50.663Z,1.20
2023-05-10T10:37:17.974Z,1.08
2023-05-10T10:39:44.953Z,1.00
2023-05-10T10:42:11.922Z,0.99
2023-05-10T10:44:40.734Z,1.12
2023-05-10T10:47:24.560Z,1.13
2023-05-10T10:49:52.731Z,1.03
2023-05-10T10:52:25.579Z,1.15
2023-05-10T10:54:53.362Z,1.08
2023-05-10T10:57:21.782Z,1.19
2023-05-10T10:59:50.056Z,1.13
2023-05-10T11:02:44.679Z,1.20
2023-05-10T11:05:37.981Z,1.06
2023-05-10T11:08:11.705Z,1.12
2023-05-10T11:10:39.633Z,1.29
2023-05-10T11:13:07.528Z,1.23
2023-05-10T11:15:37.753Z,1.25
2023-05-10T11:18:19.549Z,1.17
2023-05-10T11:20:51.806Z,1.09
2023-05-10T11:23:19.714Z,1.37
2023-05-10T11:25:47.231Z,1.28
2023-05-10T11:28:14.570Z,1.27
2023-05-10T11:30:49.461Z,1.27
2023-05-10T11:33:19.199Z,1.36
2023-05-10T11:35:53.032Z,1.28
2023-05-10T11:38:25.806Z,1.39
2023-05-10T11:40:54.674Z,1.57
2023-05-10T11:43:28.961Z,1.47
2023-05-10T11:45:57.776Z,1.67
2023-05-10T11:48:25.044Z,1.34
2023-05-10T11:50:51.958Z,1.74
2023-05-10T11:53:20.854Z,1.75
2023-05-10T11:55:50.814Z,1.42
2023-05-10T11:58:21.308Z,1.45
2023-05-10T12:00:51.518Z,1.42
2023-05-10T12:03:23.373Z,1.40
2023-05-10T12:05:50.673Z,1.33
2023-05-10T12:08:22.726Z,1.51
2023-05-10T12:10:50.084Z,1.59
2023-05-10T12:13:18.503Z,1.47
2023-05-10T12:15:45.464Z,1.22
2023-05-10T12:18:12.848Z,1.13
2023-05-10T12:20:41.610Z,1.24
2023-05-10T12:23:11.032Z,1.49
2023-05-10T12:25:38.752Z,1.58
2023-05-10T12:28:08.000Z,1.34
2023-05-10T12:30:36.460Z,1.50
2023-05-10T12:33:08.221Z,1.32
2023-05-10T12:35:46.535Z,1.39
2023-05-10T12:38:27.986Z,1.22
2023-05-10T12:40:55.151Z,1.12
2023-05-10T12:43:22.001Z,1.69
2023-05-10T12:45:49.940Z,1.47
2023-05-10T12:48:17.178Z,1.64
2023-05-10T12:50:44.281Z,1.38
2023-05-10T12:53:12.661Z,1.42
2023-05-10T12:55:39.563Z,1.65
2023-05-10T12:58:06.402Z,1.72
2023-05-10T13:00:33.226Z,1.61
2023-05-10T13:03:00.161Z,1.56
2023-05-10T13:05:27.032Z,1.82
2023-05-10T13:07:53.927Z,2.08
2023-05-10T13:10:22.114Z,1.91
2023-05-10T13:12:48.969Z,2.06
2023-05-10T13:15:15.836Z,1.86
2023-05-10T13:17:43.022Z,1.71
2023-05-10T13:20:11.194Z,1.84
2023-05-10T13:22:40.611Z,2.04
2023-05-10T13:25:08.946Z,2.04
2023-05-10T15:45:27.709Z,14.44
2023-05-10T15:47:54.525Z,14.02
2023-05-10T15:50:21.589Z,15.44
2023-05-10T15:52:48.418Z,14.28
2023-05-10T15:55:15.486Z,13.46
2023-05-10T15:57:44.023Z,11.06
2023-05-10T16:00:12.963Z,8.99
2023-05-10T16:02:41.810Z,7.68
2023-05-10T16:05:09.805Z,7.58
2023-05-10T16:07:36.939Z,6.57
2023-05-10T16:10:04.519Z,5.98
2023-05-10T16:12:31.432Z,5.47
2023-05-10T16:14:58.299Z,5.03
2023-05-10T16:17:25.265Z,4.87
2023-05-10T16:19:53.515Z,4.24
2023-05-10T16:22:20.679Z,3.60
2023-05-10T16:24:47.662Z,3.21
2023-05-10T16:27:14.487Z,3.56
2023-05-10T16:29:41.499Z,3.71
2023-05-10T16:32:09.013Z,3.19
2023-05-10T16:34:35.825Z,3.17
2023-05-10T16:37:04.253Z,3.24
2023-05-10T16:39:31.440Z,3.33
2023-05-10T16:41:58.551Z,3.43
2023-05-10T16:44:25.917Z,3.08
2023-05-10T16:46:52.912Z,3.21
2023-05-10T16:49:19.715Z,3.11
2023-05-10T16:51:46.571Z,2.96
2023-05-10T16:54:14.703Z,2.91
2023-05-10T16:56:41.650Z,2.75
2023-05-10T16:59:08.395Z,3.17
2023-05-10T17:01:41.273Z,2.84
2023-05-10T17:04:08.430Z,2.33
2023-05-10T17:06:35.839Z,2.13
2023-05-10T17:09:02.651Z,1.95
2023-05-10T17:11:30.927Z,2.00
2023-05-10T17:13:58.993Z,2.06
2023-05-10T17:16:26.157Z,1.96
2023-05-10T17:18:53.092Z,2.19
2023-05-10T17:21:20.838Z,2.66
2023-05-10T17:23:47.716Z,2.59
2023-05-10T17:26:14.554Z,2.88
2023-05-10T17:28:42.841Z,2.87
2023-05-10T17:31:09.768Z,2.93
2023-05-10T17:33:36.614Z,3.40
2023-05-10T17:36:03.582Z,4.01
2023-05-10T17:38:30.439Z,3.67
2023-05-10T17:40:57.277Z,3.29
2023-05-10T17:43:24.182Z,2.89
2023-05-10T17:45:52.411Z,2.67
2023-05-10T17:48:19.196Z,2.34
2023-05-10T17:50:46.340Z,2.75
2023-05-10T17:53:13.264Z,2.46
2023-05-10T17:55:41.065Z,2.53
2023-05-10T17:58:08.553Z,2.86
2023-05-10T18:00:35.394Z,2.99
2023-05-10T18:03:04.906Z,2.89
2023-05-10T18:05:35.395Z,2.66
2023-05-10T18:08:02.496Z,2.60
2023-05-10T18:10:29.271Z,2.83
2023-05-10T18:12:56.078Z,2.58
2023-05-10T18:15:22.901Z,2.56
2023-05-10T18:17:49.955Z,2.77
2023-05-10T18:20:18.718Z,3.10
2023-05-10T18:22:45.585Z,3.21
2023-05-10T18:25:12.496Z,3.39
2023-05-10T18:27:39.400Z,2.94
2023-05-10T18:30:07.689Z,2.27
2023-05-10T18:32:34.452Z,2.37
2023-05-10T18:35:01.390Z,2.64
2023-05-10T18:37:29.704Z,2.70
2023-05-10T18:39:56.527Z,2.66
2023-05-10T18:42:23.463Z,2.85
2023-05-10T18:44:50.355Z,2.50
2023-05-10T18:47:17.095Z,2.43
2023-05-10T18:49:44.517Z,2.52
2023-05-10T18:52:11.348Z,2.77
2023-05-10T18:54:39.650Z,7.21
2023-05-10T18:57:06.476Z,5.35
2023-05-10T18:59:33.487Z,4.28
2023-05-10T19:02:00.431Z,3.10
2023-05-10T19:04:27.265Z,2.54
2023-05-10T19:06:56.617Z,3.29
2023-05-10T19:09:23.663Z,3.52
2023-05-10T19:11:52.596Z,3.03
2023-05-10T19:14:19.504Z,2.59
2023-05-10T19:16:48.883Z,2.54
2023-05-10T19:19:15.803Z,2.28
2023-05-10T19:21:42.653Z,2.10
2023-05-10T19:24:09.480Z,1.71
2023-05-10T19:26:36.449Z,1.49
2023-05-10T19:29:05.035Z,3.59
2023-05-10T19:31:34.845Z,2.46
2023-05-10T19:34:04.123Z,1.83
2023-05-10T19:36:30.938Z,1.53
2023-05-10T19:38:57.848Z,1.24
2023-05-10T19:41:24.803Z,1.31
2023-05-10T19:43:52.051Z,1.20
2023-05-10T19:46:20.943Z,1.43
2023-05-10T19:48:47.869Z,1.79
2023-05-10T19:51:14.721Z,1.84
2023-05-10T19:53:41.444Z,10.80
2023-05-10T19:56:08.229Z,6.35
2023-05-10T19:58:35.206Z,4.20
2023-05-10T20:01:02.029Z,2.89
2023-05-10T20:03:30.280Z,2.58
2023-05-10T20:05:57.129Z,9.00
2023-05-10T20:08:24.699Z,5.66
2023-05-10T20:10:51.626Z,3.47
2023-05-10T20:13:18.514Z,3.03
2023-05-10T20:15:45.992Z,2.45
2023-05-10T20:18:12.825Z,2.52
2023-05-10T20:20:41.456Z,2.79
2023-05-10T20:23:08.888Z,2.65
2023-05-10T20:25:35.879Z,3.25
2023-05-10T20:28:03.247Z,2.80
2023-05-10T20:30:29.987Z,2.98
2023-05-10T20:32:56.821Z,2.48
2023-05-10T20:35:23.633Z,2.39
2023-05-10T20:37:51.839Z,2.43
2023-05-10T20:40:18.890Z,2.92
2023-05-10T20:42:45.825Z,2.33
2023-05-10T20:45:12.668Z,1.96
2023-05-10T20:47:39.525Z,1.69
2023-05-10T20:50:07.313Z,1.58
2023-05-10T20:52:34.151Z,1.45
2023-05-10T20:55:02.364Z,1.52
2023-05-10T20:57:29.122Z,1.66
2023-05-10T20:59:56.023Z,1.76
2023-05-10T21:02:22.955Z,1.65
2023-05-10T21:04:49.918Z,1.63
2023-05-10T21:07:16.935Z,1.72
2023-05-10T21:09:43.707Z,1.73
2023-05-10T21:12:11.929Z,1.62
2023-05-10T21:14:38.749Z,1.47
2023-05-10T21:17:05.581Z,1.22
2023-05-10T21:19:32.316Z,1.40
2023-05-10T21:21:59.012Z,1.34
2023-05-10T21:24:25.934Z,1.61
2023-05-10T21:26:52.729Z,1.62
2023-05-10T21:29:20.864Z,1.77
2023-05-10T21:31:48.400Z,1.98
2023-05-10T21:34:15.174Z,1.85
2023-05-10T21:36:41.941Z,1.93
2023-05-10T21:39:08.718Z,1.81
2023-05-10T21:41:35.568Z,1.83
2023-05-10T21:44:02.431Z,2.09
2023-05-10T21:46:30.533Z,1.94
2023-05-10T21:48:57.262Z,1.63
2023-05-10T21:51:24.049Z,1.31
2023-05-10T21:53:50.984Z,1.34
2023-05-10T21:56:17.745Z,1.35
2023-05-10T21:58:44.491Z,1.45
2023-05-10T22:01:11.236Z,1.88
2023-05-10T22:03:39.527Z,2.16
2023-05-10T22:06:06.397Z,2.07
2023-05-10T22:08:33.131Z,2.50
2023-05-10T22:11:05.654Z,2.72
2023-05-10T22:13:32.422Z,2.70
2023-05-10T22:15:59.219Z,2.65
2023-05-10T22:18:26.081Z,2.71
2023-05-10T22:20:54.260Z,2.80
2023-05-10T22:23:22.108Z,2.85
2023-05-10T22:25:48.929Z,2.74
2023-05-10T22:28:15.756Z,2.86
2023-05-10T22:30:42.866Z,3.00
2023-05-10T22:33:09.714Z,2.77
2023-05-10T22:35:36.472Z,2.42
2023-05-10T22:38:04.587Z,2.39
2023-05-10T22:40:31.364Z,2.43
2023-05-10T22:42:58.100Z,2.69
2023-05-10T22:45:25.114Z,2.56
2023-05-10T22:47:51.971Z,2.90
2023-05-10T22:50:19.234Z,2.99
2023-05-10T22:52:46.148Z,2.39
2023-05-10T22:55:14.440Z,2.20
2023-05-10T22:57:41.289Z,2.45
2023-05-10T23:00:09.096Z,2.42
2023-05-10T23:02:35.860Z,2.32
2023-05-10T23:05:02.899Z,2.55
2023-05-10T23:07:29.796Z,2.98
2023-05-10T23:09:56.605Z,2.50
2023-05-10T23:12:24.860Z,2.75
2023-05-10T23:14:51.586Z,2.63
2023-05-10T23:17:18.344Z,2.13
2023-05-10T23:19:45.063Z,1.78
2023-05-10T23:22:11.833Z,1.55
2023-05-10T23:24:38.650Z,1.89
2023-05-10T23:27:05.410Z,1.80
2023-05-10T23:29:33.527Z,1.82
2023-05-10T23:32:00.366Z,1.62
2023-05-10T23:34:27.193Z,1.65
2023-05-10T23:36:54.005Z,1.30
2023-05-10T23:39:20.740Z,1.48
2023-05-10T23:41:47.473Z,1.66
2023-05-10T23:44:14.197Z,1.97
2023-05-10T23:46:42.370Z,2.14
2023-05-10T23:49:09.162Z,2.13
2023-05-10T23:52:17.552Z,1.81
2023-05-10T23:54:45.925Z,1.75
2023-05-10T23:57:12.895Z,1.94
2023-05-10T23:59:39.713Z,2.40
